EGJA/ACI METAR and TAF weather

Enter ICAO airport designator
Station Type Date Time Source
EGJA METAR 2019/06/18 18:20 UTC NOAA

EGJA 181820Z 05013KT 9999 FEW040 14/12 Q1010


Station Type Date Time Source
EGJA Decoded METAR 2019/06/18 18:20 UTC NOAA

Alderney / Channel Island, United Kingdom (EGJA) 49-43N 002-12W
Jun 18, 2019 - 02:20 PM EDT / 2019.06.18 1820 UTC
Wind: from the NE (050 degrees) at 15 MPH (13 KT):0
Visibility: greater than 7 mile(s):0
Sky conditions: mostly clear
Temperature: 57 F (14 C)
Dew Point: 53 F (12 C)
Relative Humidity: 87%
Pressure (altimeter): 29.83 in. Hg (1010 hPa)
ob: EGJA 181820Z 05013KT 9999 FEW040 14/12 Q1010
cycle: 18

Station Type Date Time Source
EGJA TAF UTC NOAA

Error!

Example: see airport list